Time;durP1;ratioP1;P1;durP2;ratioP2;P2;SDS_P1;SDS_P2;PMS_P1;PMS_P2;Temp;Humidity;BMP_temperature;BMP_pressure;BME280_temperature;BME280_humidity;BME280_pressure;Samples;Min_cycle;Max_cycle;Signal;HPM_P1;HPM_P2
2023/05/04 00:01:59;;;;;;;4.97;4.50;;;;;;;9.44;94.95;99075.50;4122898;28;20655;-57
2023/05/04 00:04:00;;;;;;;4.93;4.43;;;;;;;9.44;94.97;99072.78;4122677;28;20210;-58
2023/05/04 00:06:02;;;;;;;4.78;4.28;;;;;;;9.44;95.06;99070.03;4123758;28;20206;-58
2023/05/04 00:08:04;;;;;;;5.30;4.43;;;;;;;9.49;95.24;99064.72;4122446;28;20202;-58
2023/05/04 00:10:06;;;;;;;4.90;4.50;;;;;;;9.47;95.08;99059.50;4121883;28;20233;-58
2023/05/04 00:12:09;;;;;;;6.07;4.13;;;;;;;9.42;95.07;99061.25;4108436;28;20202;-59
2023/05/04 00:14:11;;;;;;;5.13;4.72;;;;;;;9.37;95.43;99061.09;4126615;28;20202;-58
2023/05/04 00:16:12;;;;;;;5.38;4.97;;;;;;;9.43;95.26;99068.38;4125339;28;20365;-58
2023/05/04 00:18:14;;;;;;;5.55;5.15;;;;;;;9.33;95.96;99060.72;4109772;28;20619;-58
2023/05/04 00:20:15;;;;;;;5.45;5.05;;;;;;;9.30;95.80;99054.88;4128041;28;20229;-59
2023/05/04 00:22:17;;;;;;;4.10;3.72;;;;;;;9.21;95.48;99056.25;4128700;28;20214;-59
2023/05/04 00:24:19;;;;;;;5.18;4.68;;;;;;;9.15;95.41;99057.16;4126937;28;20289;-58
2023/05/04 00:26:20;;;;;;;5.50;4.75;;;;;;;9.15;95.40;99058.00;4127300;28;20217;-58
2023/05/04 00:28:22;;;;;;;4.43;4.03;;;;;;;9.22;95.73;99056.00;4128302;28;20688;-59
2023/05/04 00:30:23;;;;;;;4.13;3.78;;;;;;;9.19;95.72;99058.38;4126562;28;20658;-57
2023/05/04 00:32:26;;;;;;;5.43;3.70;;;;;;;9.18;95.83;99056.69;4127499;28;20206;-58
2023/05/04 00:34:28;;;;;;;4.53;3.72;;;;;;;9.15;95.94;99051.72;4125958;28;20662;-57
2023/05/04 00:36:29;;;;;;;3.35;3.05;;;;;;;9.07;95.96;99055.56;4127037;28;20281;-59
2023/05/04 00:38:45;;;;;;;5.00;3.90;;;;;;;9.04;95.77;99045.13;4128448;28;20547;-59
2023/05/04 00:40:47;;;;;;;5.45;4.95;;;;;;;9.03;96.03;99058.97;4124564;28;20985;-58
2023/05/04 00:42:49;;;;;;;8.52;3.75;;;;;;;9.04;96.13;99055.19;4108369;28;20211;-58
2023/05/04 00:44:51;;;;;;;5.63;5.22;;;;;;;9.04;95.94;99053.31;4126270;28;20257;-58
2023/05/04 00:46:52;;;;;;;7.30;4.78;;;;;;;9.07;96.06;99049.25;4124724;28;20689;-59
2023/05/04 00:48:54;;;;;;;7.07;5.20;;;;;;;8.98;95.96;99046.03;4125540;28;20244;-58
2023/05/04 00:50:56;;;;;;;6.43;5.93;;;;;;;8.92;96.30;99037.88;4125911;28;20210;-58
2023/05/04 00:52:59;;;;;;;8.23;4.53;;;;;;;8.93;96.12;99047.75;4125428;28;20245;-59
2023/05/04 00:55:00;;;;;;;5.93;5.28;;;;;;;8.84;96.33;99051.84;4125764;28;20267;-59
2023/05/04 00:57:02;;;;;;;5.53;5.07;;;;;;;8.78;96.67;99039.94;4107849;28;20993;-58
2023/05/04 00:59:03;;;;;;;5.78;4.97;;;;;;;8.77;96.86;99048.34;4123623;28;20240;-57
2023/05/04 01:01:05;;;;;;;6.32;5.55;;;;;;;8.82;96.82;99051.25;4123193;28;20210;-58
2023/05/04 01:03:08;;;;;;;5.22;4.75;;;;;;;8.82;97.14;99043.06;4124067;28;20225;-57
2023/05/04 01:05:13;;;;;;;6.05;5.47;;;;;;;8.78;96.59;99042.66;4124557;28;20720;-58
2023/05/04 01:07:44;;;;;;;5.65;5.15;;;;;;;8.72;96.60;99029.09;4125938;28;21038;-58
2023/05/04 01:09:49;;;;;;;6.05;5.47;;;;;;;8.72;96.99;99032.66;4124730;28;20226;-58
2023/05/04 01:12:05;;;;;;;6.72;6.13;;;;;;;8.65;96.46;99028.31;4126631;28;20237;-58
2023/05/04 01:14:08;;;;;;;5.47;4.97;;;;;;;8.75;96.81;99025.91;4128331;28;20210;-58
2023/05/04 01:16:09;;;;;;;5.72;5.22;;;;;;;8.75;96.72;99028.66;4112219;28;20241;-57
2023/05/04 01:18:11;;;;;;;4.78;4.38;;;;;;;8.70;96.26;99032.03;4129478;28;20209;-58
2023/05/04 01:20:13;;;;;;;4.13;3.72;;;;;;;8.71;96.31;99027.41;4128685;28;20348;-58
2023/05/04 01:22:14;;;;;;;4.38;4.07;;;;;;;8.66;96.54;99027.25;4130078;28;20202;-58
2023/05/04 01:24:16;;;;;;;4.45;4.05;;;;;;;8.65;96.41;99017.41;4129926;28;20221;-58
2023/05/04 01:26:23;;;;;;;5.72;3.95;;;;;;;8.60;96.88;99031.72;4123115;28;20257;-58
2023/05/04 01:28:41;;;;;;;3.88;3.53;;;;;;;8.58;96.73;99033.00;4103972;28;20578;-58
2023/05/04 01:30:44;;;;;;;4.07;3.65;;;;;;;8.50;97.02;99031.38;4102513;28;21384;-58
2023/05/04 01:32:46;;;;;;;4.03;3.72;;;;;;;8.41;96.99;99026.47;4123846;28;20206;-58
2023/05/04 01:34:48;;;;;;;4.72;4.30;;;;;;;8.42;97.03;99028.13;4106980;28;20271;-58
2023/05/04 01:36:50;;;;;;;4.90;3.78;;;;;;;8.31;97.77;99015.22;4123347;28;20348;-58
2023/05/04 01:38:56;;;;;;;7.20;3.97;;;;;;;8.30;97.32;99021.75;4106094;28;20202;-58
2023/05/04 01:40:58;;;;;;;4.15;3.85;;;;;;;8.25;97.47;99027.00;4123468;28;20209;-57
2023/05/04 01:42:59;;;;;;;5.00;4.47;;;;;;;8.32;97.10;99027.78;4128122;28;20565;-58
2023/05/04 01:45:02;;;;;;;4.93;4.55;;;;;;;8.32;96.98;99027.78;4124730;28;20293;-58
2023/05/04 01:47:03;;;;;;;10.10;4.63;;;;;;;8.30;97.37;99024.47;4122683;28;20213;-58
2023/05/04 01:49:05;;;;;;;8.68;4.43;;;;;;;8.30;97.15;99024.47;4122708;28;20231;-58
2023/05/04 01:51:07;;;;;;;4.40;4.05;;;;;;;8.31;97.15;99020.66;4123639;28;20218;-58
2023/05/04 01:53:08;;;;;;;5.03;4.47;;;;;;;8.26;97.40;99023.22;4123350;28;20309;-58
2023/05/04 01:55:10;;;;;;;5.00;4.60;;;;;;;8.23;97.65;99018.22;4105825;28;21824;-58
2023/05/04 01:57:12;;;;;;;4.15;3.80;;;;;;;8.22;97.69;99022.03;4124231;28;20230;-58
2023/05/04 01:59:14;;;;;;;4.10;3.75;;;;;;;8.18;97.14;99020.75;4124604;28;20222;-58
2023/05/04 02:01:16;;;;;;;4.45;4.05;;;;;;;8.22;97.25;99017.38;4125063;28;20207;-58
2023/05/04 02:03:17;;;;;;;9.30;4.47;;;;;;;8.18;97.65;99015.31;4123595;28;20208;-60
2023/05/04 02:05:19;;;;;;;10.73;3.88;;;;;;;8.11;97.99;99014.53;4122755;28;20228;-60
2023/05/04 02:07:21;;;;;;;3.20;3.00;;;;;;;8.09;98.48;99017.47;4124580;28;20202;-60
2023/05/04 02:09:22;;;;;;;3.95;3.65;;;;;;;8.05;97.66;99010.81;4121675;28;20230;-60
2023/05/04 02:11:24;;;;;;;4.43;4.10;;;;;;;8.05;97.84;99013.53;4122812;28;20310;-61
2023/05/04 02:13:26;;;;;;;3.95;3.70;;;;;;;8.09;98.18;99016.66;4124099;28;20202;-58
2023/05/04 02:15:27;;;;;;;4.18;3.88;;;;;;;8.08;98.13;99009.53;4123985;28;20894;-57
2023/05/04 02:17:29;;;;;;;4.03;3.72;;;;;;;7.99;97.49;98999.94;4105995;28;20210;-58
2023/05/04 02:19:30;;;;;;;4.88;4.50;;;;;;;8.09;97.79;99005.75;4124392;28;20226;-58
2023/05/04 02:21:32;;;;;;;4.20;3.90;;;;;;;8.13;97.26;99009.69;4122820;28;20198;-58
2023/05/04 02:23:33;;;;;;;4.30;3.80;;;;;;;8.09;97.22;98992.13;4124801;28;20671;-58
2023/05/04 02:25:39;;;;;;;3.75;3.17;;;;;;;8.08;97.10;98994.00;4104873;28;20327;-57
2023/05/04 02:27:41;;;;;;;3.95;3.65;;;;;;;8.10;97.31;98993.78;4106146;28;20202;-57
2023/05/04 02:29:43;;;;;;;3.67;3.47;;;;;;;8.07;97.45;99005.09;4124402;28;20236;-58
2023/05/04 02:31:44;;;;;;;4.85;4.13;;;;;;;7.97;97.43;99004.78;4124697;28;20206;-57
2023/05/04 02:33:46;;;;;;;4.00;3.67;;;;;;;8.00;97.61;98998.88;4122552;28;20268;-58
2023/05/04 02:35:47;;;;;;;5.03;4.70;;;;;;;7.90;97.51;98995.84;4124745;28;20209;-58
2023/05/04 02:37:49;;;;;;;4.20;3.90;;;;;;;7.86;97.51;98994.59;4123439;28;20563;-58
2023/05/04 02:39:51;;;;;;;4.22;3.88;;;;;;;7.83;97.88;99000.50;4123597;28;20724;-57
2023/05/04 02:41:52;;;;;;;3.33;3.13;;;;;;;7.81;98.17;99002.63;4123756;28;20214;-58
2023/05/04 02:43:54;;;;;;;3.97;3.65;;;;;;;7.81;97.53;98997.16;4124311;28;20206;-57
2023/05/04 02:45:55;;;;;;;4.25;3.95;;;;;;;7.78;97.75;98993.00;4123283;28;20252;-58
2023/05/04 02:47:57;;;;;;;4.55;4.15;;;;;;;7.71;97.86;98999.53;4123453;28;20328;-58
2023/05/04 02:49:59;;;;;;;5.10;4.53;;;;;;;7.66;98.10;98996.63;4123263;28;20222;-58
2023/05/04 02:52:00;;;;;;;5.55;4.47;;;;;;;7.67;99.25;98995.56;4107463;28;20206;-58
2023/05/04 02:54:02;;;;;;;4.50;4.10;;;;;;;7.65;98.94;98992.22;4122786;28;20206;-58
2023/05/04 02:56:04;;;;;;;4.78;4.38;;;;;;;7.63;98.97;98988.91;4122807;28;20224;-58
2023/05/04 02:58:06;;;;;;;4.78;4.28;;;;;;;7.60;99.30;98984.72;4124190;28;20300;-57
2023/05/04 03:00:08;;;;;;;5.00;4.47;;;;;;;7.61;98.97;98985.56;4122591;28;20316;-58
2023/05/04 03:02:10;;;;;;;3.85;3.55;;;;;;;7.66;98.58;98988.44;4123839;28;20212;-58
2023/05/04 03:04:11;;;;;;;4.63;4.18;;;;;;;7.69;98.88;98985.31;4127246;28;20198;-58
2023/05/04 03:06:13;;;;;;;4.70;4.35;;;;;;;7.68;98.81;98980.91;4128096;28;20636;-57
2023/05/04 03:08:14;;;;;;;4.70;4.28;;;;;;;7.65;98.91;98971.28;4127708;28;20206;-57
2023/05/04 03:10:16;;;;;;;4.75;4.10;;;;;;;7.61;98.86;98974.69;4127586;28;20230;-58
2023/05/04 03:12:18;;;;;;;4.82;4.53;;;;;;;7.52;98.39;98971.38;4127440;28;20256;-57
2023/05/04 03:14:20;;;;;;;4.85;4.10;;;;;;;7.41;98.69;98971.25;4126244;28;20217;-58
2023/05/04 03:16:21;;;;;;;4.60;4.20;;;;;;;7.50;99.32;98967.22;4107180;28;20206;-58
2023/05/04 03:18:23;;;;;;;4.00;3.70;;;;;;;7.34;100.00;98962.25;4123590;28;20264;-58
2023/05/04 03:20:25;;;;;;;5.18;4.78;;;;;;;7.32;99.35;98965.22;4122310;28;20223;-58
2023/05/04 03:22:26;;;;;;;4.35;4.05;;;;;;;7.32;99.17;98969.81;4123402;28;20202;-58
2023/05/04 03:24:28;;;;;;;4.35;4.05;;;;;;;7.35;99.68;98974.84;4119629;28;20245;-58
2023/05/04 03:26:29;;;;;;;3.88;3.35;;;;;;;7.40;99.27;98966.84;4123356;28;20213;-58
2023/05/04 03:28:31;;;;;;;3.70;3.40;;;;;;;7.51;99.30;98974.31;4106129;28;20610;-58
2023/05/04 03:30:35;;;;;;;3.78;3.47;;;;;;;7.50;98.59;98973.47;4122749;28;20253;-58
2023/05/04 03:32:36;;;;;;;6.80;3.67;;;;;;;7.51;98.31;98963.44;4122719;28;20206;-58
2023/05/04 03:34:38;;;;;;;3.78;3.47;;;;;;;7.49;98.74;98965.53;4119224;28;20245;-58
2023/05/04 03:36:39;;;;;;;4.68;4.28;;;;;;;7.48;98.71;98964.69;4122536;28;20639;-58
2023/05/04 03:38:41;;;;;;;4.22;3.83;;;;;;;7.46;99.03;98965.97;4106645;28;20212;-58
2023/05/04 03:40:42;;;;;;;4.78;4.38;;;;;;;7.38;98.58;98964.34;4104612;28;20586;-58
2023/05/04 03:42:44;;;;;;;5.38;4.05;;;;;;;7.39;98.76;98966.03;4122911;28;20202;-58
2023/05/04 03:44:45;;;;;;;4.68;4.38;;;;;;;7.42;98.79;98979.19;4122328;28;20682;-58
2023/05/04 03:46:47;;;;;;;6.28;4.63;;;;;;;7.43;98.70;98971.88;4124719;28;20200;-58
2023/05/04 03:48:49;;;;;;;5.32;4.85;;;;;;;7.47;98.86;98964.91;4123708;28;20214;-58
2023/05/04 03:50:50;;;;;;;7.32;3.53;;;;;;;7.49;98.60;98971.00;4124600;28;20210;-58
2023/05/04 03:52:52;;;;;;;5.10;4.50;;;;;;;7.38;98.53;98979.84;4106412;28;20213;-58
2023/05/04 03:54:53;;;;;;;5.35;4.47;;;;;;;7.37;98.82;98984.44;4124558;28;20209;-58
2023/05/04 03:56:55;;;;;;;3.92;3.45;;;;;;;7.36;99.17;98971.06;4126367;28;20230;-59
2023/05/04 03:58:56;;;;;;;7.13;4.07;;;;;;;7.33;99.36;98977.78;4125197;28;20224;-58
2023/05/04 04:00:58;;;;;;;4.50;4.20;;;;;;;7.30;98.98;98988.28;4094668;28;20222;-58
2023/05/04 04:03:00;;;;;;;4.72;4.30;;;;;;;7.34;99.47;98984.03;4109289;28;20226;-58
2023/05/04 04:05:02;;;;;;;5.43;4.03;;;;;;;7.35;99.35;98980.28;4127085;28;20218;-59
2023/05/04 04:07:04;;;;;;;4.80;3.47;;;;;;;7.37;99.30;98975.47;4127479;28;20197;-58
2023/05/04 04:09:06;;;;;;;11.13;4.35;;;;;;;7.34;99.49;98984.03;4125927;28;20249;-59
2023/05/04 04:11:07;;;;;;;3.70;3.47;;;;;;;7.35;98.95;98983.03;4128179;28;20214;-58
2023/05/04 04:13:09;;;;;;;5.97;4.68;;;;;;;7.31;99.41;98973.59;4128362;28;20210;-58
2023/05/04 04:15:11;;;;;;;4.13;3.88;;;;;;;7.35;99.37;98981.13;4128348;28;20268;-58
2023/05/04 04:17:12;;;;;;;3.38;3.08;;;;;;;7.36;99.34;98981.97;4127899;28;20358;-57
2023/05/04 04:19:14;;;;;;;3.95;3.65;;;;;;;7.42;98.95;98975.66;4127322;28;20702;-57
2023/05/04 04:21:16;;;;;;;4.43;4.13;;;;;;;7.25;99.40;98983.50;4126773;28;20296;-59
2023/05/04 04:23:18;;;;;;;4.60;3.95;;;;;;;7.25;99.20;98985.34;4126152;28;20922;-57
2023/05/04 04:25:20;;;;;;;4.70;4.35;;;;;;;7.24;99.41;98990.00;4122914;28;20234;-58
2023/05/04 04:27:21;;;;;;;3.95;3.70;;;;;;;7.26;99.38;98992.47;4123213;28;20194;-57
2023/05/04 04:29:23;;;;;;;5.10;3.88;;;;;;;7.21;99.33;98990.41;4123170;28;20252;-58
2023/05/04 04:31:24;;;;;;;4.78;3.90;;;;;;;7.22;99.72;98991.25;4123605;28;20202;-58
2023/05/04 04:33:26;;;;;;;3.85;3.55;;;;;;;7.21;100.00;98992.31;4122450;28;20209;-57
2023/05/04 04:35:28;;;;;;;3.88;3.63;;;;;;;7.34;99.76;98986.75;4105258;28;20965;-58
2023/05/04 04:37:29;;;;;;;3.67;3.47;;;;;;;7.34;99.48;98978.59;4125675;28;20236;-58
2023/05/04 04:39:31;;;;;;;3.92;3.65;;;;;;;7.30;100.00;98983.66;4106284;28;20227;-58
2023/05/04 04:41:33;;;;;;;4.43;4.03;;;;;;;7.15;100.00;98987.72;4124932;28;20272;-58
2023/05/04 04:43:35;;;;;;;4.32;4.03;;;;;;;7.19;100.00;98991.66;4108628;28;20215;-58
2023/05/04 04:45:37;;;;;;;7.32;4.05;;;;;;;7.20;100.00;98987.88;4124993;28;20393;-59
2023/05/04 04:47:38;;;;;;;7.78;4.18;;;;;;;7.18;100.00;98995.44;4126065;28;20306;-58
2023/05/04 04:49:40;;;;;;;5.32;4.47;;;;;;;6.95;100.00;98989.69;4124758;28;20226;-58
2023/05/04 04:51:42;;;;;;;4.68;4.38;;;;;;;7.07;100.00;98987.94;4123207;28;20206;-58
2023/05/04 04:53:44;;;;;;;5.80;4.32;;;;;;;7.08;100.00;98990.47;4126210;28;20217;-58
2023/05/04 04:55:46;;;;;;;5.95;5.45;;;;;;;7.14;100.00;98991.47;4123447;28;20293;-58
2023/05/04 04:57:47;;;;;;;4.72;4.22;;;;;;;7.09;100.00;98991.31;4130010;28;20730;-59
2023/05/04 04:59:52;;;;;;;5.68;3.63;;;;;;;7.10;100.00;98992.97;4126587;28;20320;-59
2023/05/04 05:01:56;;;;;;;4.68;4.28;;;;;;;7.13;99.97;98997.97;4126960;28;20209;-58
2023/05/04 05:03:59;;;;;;;5.13;4.72;;;;;;;7.13;100.00;98997.97;4130084;28;20565;-59
2023/05/04 05:06:02;;;;;;;4.95;4.55;;;;;;;7.21;100.00;98995.03;4129780;28;20679;-59
2023/05/04 05:08:05;;;;;;;4.35;4.05;;;;;;;7.24;99.90;99000.88;4126058;28;20214;-59
2023/05/04 05:10:08;;;;;;;4.45;4.15;;;;;;;7.23;100.00;98993.72;4107765;28;20223;-59
2023/05/04 05:12:11;;;;;;;7.95;4.63;;;;;;;7.32;100.00;98997.03;4130128;28;20244;-59
2023/05/04 05:14:17;;;;;;;4.22;3.90;;;;;;;7.34;100.00;98997.66;4111475;28;20239;-59
2023/05/04 05:16:24;;;;;;;4.57;4.05;;;;;;;7.33;99.94;99007.72;4113017;28;20359;-59
2023/05/04 05:18:28;;;;;;;4.70;4.30;;;;;;;7.43;100.00;99005.34;4108645;28;20274;-59
2023/05/04 05:20:31;;;;;;;5.15;4.65;;;;;;;7.47;100.00;99000.31;4126133;28;20889;-59
2023/05/04 05:22:33;;;;;;;4.95;4.53;;;;;;;7.63;99.52;99005.25;4109265;28;20654;-59
2023/05/04 05:24:36;;;;;;;9.40;4.10;;;;;;;7.63;99.53;99002.53;4128028;28;20214;-59
2023/05/04 05:26:40;;;;;;;5.95;5.45;;;;;;;7.71;99.64;99002.25;4113317;28;20246;-59
2023/05/04 05:28:45;;;;;;;6.82;4.95;;;;;;;7.58;100.00;98997.75;4128987;28;20224;-59
2023/05/04 05:30:50;;;;;;;6.90;4.50;;;;;;;7.68;100.00;98997.25;4095485;28;20215;-59
2023/05/04 05:32:54;;;;;;;6.18;4.22;;;;;;;7.85;100.00;99006.56;4112239;28;20262;-59
2023/05/04 05:35:00;;;;;;;5.78;5.38;;;;;;;7.88;100.00;99008.84;4108983;28;20215;-59
2023/05/04 05:37:03;;;;;;;6.22;5.72;;;;;;;8.06;100.00;99006.16;4128695;28;20206;-59
2023/05/04 05:39:10;;;;;;;5.00;4.63;;;;;;;8.28;100.00;99002.88;4129579;28;20241;-60
2023/05/04 05:41:14;;;;;;;7.25;6.65;;;;;;;8.46;100.00;99002.06;4113998;28;20214;-60
2023/05/04 05:43:19;;;;;;;7.57;5.28;;;;;;;8.62;100.00;98996.88;4116647;28;20302;-60
2023/05/04 05:45:21;;;;;;;4.95;4.65;;;;;;;8.68;100.00;99000.59;4122174;28;20213;-60
2023/05/04 05:47:22;;;;;;;5.07;4.68;;;;;;;9.01;100.00;98998.34;4108633;28;20570;-60
2023/05/04 05:49:24;;;;;;;6.18;5.00;;;;;;;9.05;96.84;98996.78;4121380;28;20462;-59
2023/05/04 05:51:26;;;;;;;5.35;4.88;;;;;;;9.18;98.57;98988.44;4124027;28;20206;-59
2023/05/04 05:53:27;;;;;;;4.80;4.50;;;;;;;9.12;100.00;98997.53;4126680;28;20214;-59
2023/05/04 05:55:29;;;;;;;4.50;4.20;;;;;;;9.31;99.34;98991.84;4127049;28;20198;-59
2023/05/04 05:57:30;;;;;;;6.50;4.43;;;;;;;9.41;98.47;98996.75;4128897;28;20241;-60
2023/05/04 05:59:32;;;;;;;6.75;4.55;;;;;;;9.57;97.61;98996.94;4110826;28;20257;-59
2023/05/04 06:01:34;;;;;;;4.75;4.35;;;;;;;9.81;96.47;98995.94;4128957;28;20210;-59
2023/05/04 06:03:35;;;;;;;4.40;4.00;;;;;;;10.03;95.97;99001.72;4128690;28;20644;-59
2023/05/04 06:05:37;;;;;;;4.00;3.65;;;;;;;10.14;95.55;99003.69;4128648;28;20218;-59
2023/05/04 06:07:38;;;;;;;3.88;3.47;;;;;;;10.39;95.33;99007.00;4125418;28;20758;-59
2023/05/04 06:09:40;;;;;;;6.50;3.92;;;;;;;10.58;94.02;99003.94;4124280;28;20228;-60
2023/05/04 06:11:42;;;;;;;4.43;3.33;;;;;;;10.72;94.47;98996.31;4126884;28;20337;-60
2023/05/04 06:13:43;;;;;;;6.03;3.97;;;;;;;10.85;94.23;99005.94;4127282;28;20214;-60
2023/05/04 06:15:51;;;;;;;4.18;3.78;;;;;;;10.94;93.58;99000.94;4126393;28;20221;-59
2023/05/04 06:17:53;;;;;;;4.15;2.88;;;;;;;11.10;91.95;99001.00;4126271;28;20228;-60
2023/05/04 06:19:55;;;;;;;4.10;3.70;;;;;;;11.27;91.48;98999.19;4126966;28;20317;-59
2023/05/04 06:21:56;;;;;;;5.70;4.45;;;;;;;11.27;87.33;98995.63;4121917;28;20555;-60
2023/05/04 06:23:58;;;;;;;3.60;3.28;;;;;;;11.38;89.08;99001.06;4122474;28;20212;-60
2023/05/04 06:26:00;;;;;;;4.40;3.72;;;;;;;11.58;88.11;98990.53;4125289;28;20241;-60
2023/05/04 06:28:02;;;;;;;5.15;3.30;;;;;;;11.72;88.71;98978.19;4122483;28;20211;-60
2023/05/04 06:30:05;;;;;;;3.95;3.15;;;;;;;11.84;87.88;98984.44;4122315;28;20250;-60
2023/05/04 06:32:09;;;;;;;3.40;3.10;;;;;;;12.05;87.19;98989.19;4121764;28;20210;-60
2023/05/04 06:34:21;;;;;;;5.65;4.15;;;;;;;12.15;86.65;98983.91;4129657;28;20337;-60
2023/05/04 06:36:27;;;;;;;4.07;3.65;;;;;;;12.30;85.64;98986.91;4098107;28;20238;-61
2023/05/04 06:38:40;;;;;;;3.15;2.95;;;;;;;12.36;86.30;98980.41;4096484;28;20250;-61
2023/05/04 06:40:45;;;;;;;4.57;3.25;;;;;;;12.36;83.55;98982.34;4097576;28;20227;-60
2023/05/04 06:42:50;;;;;;;4.25;3.50;;;;;;;12.51;84.92;98980.63;4096627;28;20206;-60
2023/05/04 06:44:57;;;;;;;4.25;3.22;;;;;;;12.62;85.23;98984.38;4113049;28;20214;-60
2023/05/04 06:47:02;;;;;;;4.47;3.75;;;;;;;12.93;85.13;98992.81;4122057;28;20210;-60
2023/05/04 06:49:08;;;;;;;10.50;4.00;;;;;;;13.09;83.06;98988.41;4094402;28;20275;-60
2023/05/04 06:51:12;;;;;;;6.78;4.05;;;;;;;12.83;81.49;98984.41;4129774;28;20674;-60
2023/05/04 06:53:18;;;;;;;4.40;3.70;;;;;;;12.94;80.83;98983.50;4112731;28;20207;-60
2023/05/04 06:55:24;;;;;;;3.95;3.25;;;;;;;13.09;80.54;98985.66;4112189;28;20214;-60
2023/05/04 06:57:31;;;;;;;4.05;3.47;;;;;;;13.10;77.79;98979.88;4110924;28;20238;-60
2023/05/04 06:59:36;;;;;;;4.57;4.18;;;;;;;12.74;79.81;98988.69;4110327;28;20231;-60
2023/05/04 07:01:47;;;;;;;4.72;3.72;;;;;;;12.68;80.08;98978.72;4128566;28;20210;-60
2023/05/04 07:03:52;;;;;;;4.55;4.05;;;;;;;12.80;79.66;98975.84;4112538;28;20293;-60
2023/05/04 07:05:58;;;;;;;5.03;4.63;;;;;;;13.13;80.01;98982.13;4095364;28;20292;-60
2023/05/04 07:08:05;;;;;;;5.10;4.65;;;;;;;13.30;78.82;98980.13;4129313;28;20301;-60
2023/05/04 07:10:11;;;;;;;4.97;3.83;;;;;;;13.36;78.55;98975.56;4111079;28;20331;-60
2023/05/04 07:12:15;;;;;;;4.50;4.10;;;;;;;13.98;78.14;98985.84;4095796;28;20225;-60
2023/05/04 07:14:20;;;;;;;4.35;3.90;;;;;;;14.42;78.21;98987.41;4092019;28;20709;-60
2023/05/04 07:17:08;;;;;;;4.35;3.90;;;;;;;13.97;73.34;98988.88;4121610;28;21585;-60
2023/05/04 07:19:09;;;;;;;4.88;3.70;;;;;;;13.55;75.05;98980.44;4120881;28;20739;-60
2023/05/04 07:21:11;;;;;;;17.27;4.18;;;;;;;13.63;74.93;98982.72;4122708;28;20241;-60
2023/05/04 07:23:28;;;;;;;4.70;4.25;;;;;;;13.53;75.82;98979.88;4125741;28;20220;-59
2023/05/04 07:25:30;;;;;;;4.57;4.18;;;;;;;13.50;75.69;98983.13;4125132;28;20720;-60
2023/05/04 07:27:33;;;;;;;4.85;4.40;;;;;;;13.48;77.54;98970.72;4123827;28;20784;-60
2023/05/04 07:29:35;;;;;;;5.60;3.72;;;;;;;13.66;77.09;98964.88;4120793;28;20234;-59
2023/05/04 07:31:37;;;;;;;5.03;3.60;;;;;;;13.86;75.30;98968.69;4118182;28;20241;-60
2023/05/04 07:33:39;;;;;;;4.35;3.78;;;;;;;13.88;73.15;98969.25;4124380;28;20209;-59
2023/05/04 07:35:40;;;;;;;4.18;3.75;;;;;;;13.98;72.80;98965.78;4122923;28;20562;-60
2023/05/04 07:37:42;;;;;;;4.65;3.67;;;;;;;13.90;73.14;98960.75;4123698;28;20210;-60
2023/05/04 07:39:44;;;;;;;4.25;3.95;;;;;;;14.05;72.82;98953.47;4118798;28;20763;-60
2023/05/04 07:41:45;;;;;;;4.57;4.25;;;;;;;14.10;72.57;98956.25;4117908;28;20210;-60
2023/05/04 07:43:49;;;;;;;3.80;3.50;;;;;;;14.19;72.96;98949.22;4120131;28;20205;-60
2023/05/04 07:45:52;;;;;;;4.65;3.80;;;;;;;14.16;73.18;98949.69;4121150;28;20206;-60
2023/05/04 07:47:53;;;;;;;4.60;4.05;;;;;;;14.24;73.64;98952.00;4105927;28;20664;-60
2023/05/04 07:49:55;;;;;;;22.85;4.70;;;;;;;14.26;73.81;98949.81;4123163;28;20253;-60
2023/05/04 07:51:57;;;;;;;11.57;4.60;;;;;;;14.37;72.45;98946.03;4119134;28;20206;-59
2023/05/04 07:53:58;;;;;;;4.80;4.40;;;;;;;14.66;75.72;98932.75;4103506;28;20229;-59
2023/05/04 07:56:07;;;;;;;4.05;3.67;;;;;;;15.20;72.74;98937.75;4117662;28;20202;-59
2023/05/04 07:58:10;;;;;;;4.70;3.53;;;;;;;15.29;72.08;98941.63;4122852;28;20214;-58
2023/05/04 08:00:13;;;;;;;3.72;3.42;;;;;;;15.79;71.29;98930.78;4124335;28;20229;-57
2023/05/04 08:02:15;;;;;;;5.93;4.00;;;;;;;15.92;71.43;98930.25;4125259;28;20212;-58
2023/05/04 08:04:17;;;;;;;4.50;4.03;;;;;;;16.17;69.14;98924.72;4123957;28;21072;-58
2023/05/04 08:06:18;;;;;;;4.85;3.22;;;;;;;16.71;70.23;98920.31;4120043;28;20209;-59
2023/05/04 08:08:20;;;;;;;3.83;3.53;;;;;;;17.14;69.16;98919.63;4120449;28;20206;-59
2023/05/04 08:10:22;;;;;;;6.40;3.63;;;;;;;17.26;65.71;98920.94;4122670;28;20234;-59
2023/05/04 08:12:25;;;;;;;5.75;3.38;;;;;;;17.13;66.46;98918.78;4121754;28;20220;-59
2023/05/04 08:14:27;;;;;;;6.55;3.88;;;;;;;17.41;63.52;98917.31;4123495;28;20202;-59
2023/05/04 08:16:28;;;;;;;4.40;3.60;;;;;;;17.39;64.85;98914.81;4120195;28;20213;-59
2023/05/04 08:18:30;;;;;;;4.38;3.95;;;;;;;17.78;67.18;98918.47;4120131;28;20579;-57
2023/05/04 08:20:31;;;;;;;4.75;3.40;;;;;;;17.60;63.75;98910.00;4121598;28;20237;-57
2023/05/04 08:22:34;;;;;;;4.35;3.67;;;;;;;17.75;64.45;98909.91;4103831;28;20576;-59
2023/05/04 08:24:35;;;;;;;3.38;2.92;;;;;;;18.01;64.73;98903.09;4119075;28;20210;-58
2023/05/04 08:26:37;;;;;;;4.32;3.45;;;;;;;18.17;65.10;98907.38;4106153;28;21131;-58
2023/05/04 08:28:39;;;;;;;5.10;3.50;;;;;;;17.88;62.63;98900.97;4122073;28;20210;-59
2023/05/04 08:30:41;;;;;;;4.28;3.25;;;;;;;18.01;63.42;98903.09;4126101;28;20234;-59
2023/05/04 08:32:51;;;;;;;6.05;3.42;;;;;;;18.21;63.50;98902.94;4128477;28;20868;-59
2023/05/04 08:34:53;;;;;;;2.95;2.65;;;;;;;18.26;63.33;98894.59;4112668;28;20210;-59
2023/05/04 08:36:55;;;;;;;3.10;2.88;;;;;;;18.03;57.33;98901.69;4106072;28;20294;-59
2023/05/04 08:38:56;;;;;;;3.35;3.05;;;;;;;18.42;58.82;98898.91;4124218;28;20221;-58
2023/05/04 08:41:05;;;;;;;3.15;2.30;;;;;;;18.52;58.38;98887.72;4126152;28;20213;-59
2023/05/04 08:43:07;;;;;;;3.20;3.00;;;;;;;18.74;57.00;98891.66;4128787;28;20205;-59
2023/05/04 08:45:09;;;;;;;3.38;3.08;;;;;;;19.10;54.77;98895.66;4126581;28;20632;-59
2023/05/04 08:47:11;;;;;;;3.47;3.10;;;;;;;18.68;53.32;98886.44;4120618;28;20217;-59
2023/05/04 08:49:12;;;;;;;3.10;2.40;;;;;;;18.97;52.96;98890.03;4123966;28;20369;-59
2023/05/04 08:51:14;;;;;;;2.80;2.60;;;;;;;18.89;52.83;98905.34;4120521;28;20198;-59
2023/05/04 08:53:18;;;;;;;2.30;2.10;;;;;;;18.90;51.79;98900.59;4106220;28;20674;-59
2023/05/04 08:55:19;;;;;;;2.58;2.38;;;;;;;19.01;51.19;98902.16;4119804;28;20209;-59
2023/05/04 08:57:24;;;;;;;3.97;3.03;;;;;;;18.63;51.90;98894.81;4108579;28;20221;-59
2023/05/04 08:59:27;;;;;;;2.65;2.45;;;;;;;18.77;52.43;98890.25;4125126;28;20233;-59
2023/05/04 09:01:29;;;;;;;2.78;2.45;;;;;;;18.99;53.10;98891.34;4086943;28;20218;-59
2023/05/04 09:03:30;;;;;;;2.67;2.47;;;;;;;19.09;50.63;98879.31;4104137;28;20609;-59
2023/05/04 09:05:33;;;;;;;2.95;2.20;;;;;;;19.24;50.71;98890.28;4103263;28;20238;-59
2023/05/04 09:07:34;;;;;;;1.95;1.83;;;;;;;19.75;51.63;98886.50;4105879;28;20226;-58
2023/05/04 09:09:36;;;;;;;3.35;2.65;;;;;;;19.18;49.50;98874.78;4123600;28;20237;-59
2023/05/04 09:11:38;;;;;;;2.15;2.00;;;;;;;19.12;49.34;98875.97;4119069;28;20212;-57
2023/05/04 09:13:41;;;;;;;2.10;1.98;;;;;;;19.19;49.47;98876.41;4124832;28;20659;-58
2023/05/04 09:15:53;;;;;;;2.20;2.00;;;;;;;19.65;49.51;98869.97;4127679;28;20210;-58
2023/05/04 09:18:02;;;;;;;3.10;2.58;;;;;;;19.89;48.93;98867.94;4125460;28;20208;-59
2023/05/04 09:20:04;;;;;;;2.33;2.13;;;;;;;20.45;49.78;98862.31;4128856;28;20221;-59
2023/05/04 09:22:16;;;;;;;2.47;2.28;;;;;;;20.43;48.79;98875.66;4128482;28;20663;-59
2023/05/04 09:24:27;;;;;;;2.95;2.47;;;;;;;20.42;48.51;98868.47;4126279;28;20264;-59
2023/05/04 09:26:30;;;;;;;5.18;1.92;;;;;;;20.63;48.83;98870.59;4125291;28;20550;-58
2023/05/04 09:28:37;;;;;;;2.28;1.88;;;;;;;20.94;48.87;98855.00;4127059;28;20289;-59
2023/05/04 09:30:38;;;;;;;2.38;1.90;;;;;;;21.04;46.62;98862.31;4127056;28;20229;-59
2023/05/04 09:32:48;;;;;;;1.70;1.40;;;;;;;20.16;46.26;98861.69;4127388;28;20327;-59
2023/05/04 09:34:50;;;;;;;3.38;1.92;;;;;;;20.05;46.29;98868.53;4128039;28;20289;-59
2023/05/04 09:37:02;;;;;;;2.33;1.42;;;;;;;19.96;45.31;98865.59;4127978;28;20204;-58
2023/05/04 09:39:13;;;;;;;3.00;1.50;;;;;;;20.17;46.40;98863.38;4126930;28;20276;-58
2023/05/04 09:41:15;;;;;;;2.72;1.67;;;;;;;20.48;44.82;98850.56;4129246;28;20289;-58
2023/05/04 09:43:17;;;;;;;2.45;1.50;;;;;;;20.92;47.06;98846.09;4129751;28;20201;-59